עמוד ראשי
METAR-TAF:

METAR-TAF

שדות תעופה :

Woodward, אוקלהומה, ארצות הברית

קו רוחב: 36-26-12N, קו אורך: 099-31-16W, גובה: 667מטר

תצפית מזג אוויר נוכחית

הדו"ח נערך לפני 26דקות, בשעה 11:50 UTC
רוח 6קשר מכיוון דרום/דרום-מערב
טמפרטורת 19 צלסיוס
לחות 83%
לחץ 1024 hPa
ראות: 16.1קילומטר
שמיים נקיים

METAR: KWWR 251150Z AUTO 21006KT 10SM CLR 19/16 A3024 RMK AO2

זמן: 07:16 (12:16 UTC)

תחזית

הדו"ח נערך לפני 56דקות, בשעה 11:20 UTC
תחזית בתוקף מ 25 ב 12 UTC עד 26 ב 12 UTC
רוח 6קשר מכיוון דרום
ראות: 10קילומטר
שמיים נקיים
מ 25 ב 1900UTC
רוח 9קשר מכיוון דרום-מזרח
ראות: 10קילומטר
מעט עננים בגובה 7000רגל

TAF: KWWR 251120Z 2512/2612 18006KT P6SM SKC FM251900 14009KT P6SM FEW070

תצפיות ותחזיות מזג אוויר לגבי יותר מ- 4,000 שדות תעופה ברחבי העולם. דוחות METAR ו- TAF.

התחנות הזמינות מסומנות בנקודות צהובות ואדומות על גבי המפה.

העבר את העכבר לנקודה הצבעונית על מנת לראות את שם התחנה.

לאחר מכן, לחץ כדי לראות את תוכן ואת תחזיות מזג האוויר.

כדי לשנות את המפה: לחץ על הכפתורים הירוקים עם הפלוס השחור כדי להתקרב; על הכפתור הירוק עם המקף כדי להתרחק; או בחיצים הירוקים למפות סמוכות.


METAR-TAF: